Latest Weather Observations for Perisher Valley

IDN60801

Issued at 7:35 am EST Thursday 17 April 2014 (issued every 30 minutes, with the page automatically refreshed every 10 minutes)

About weather observations | Map of weather stations | Latest weather observations for NSW | Other Formats
Station Details ID: 071075 Name: PERISHER VALLEY AWS Lat: -36.41 Lon: 148.41 Height: 1738.0 m
Data from the previous 72 hours. | See also: Recent months at Perisher Valley
Date/Time
EST
Temp
°C
App
Temp
°C
Dew
Point
Rel
Hum
%
Delta-T
°C
Wind Press
QNH
hPa
Press
MSL
hPa
Rain
since 9 am
mm
Dir
 
Spd
km/h
Gust
km/h
Spd
kts
Gust
kts
17/07:30am 1.1 -1.1 0.8 98 0.1 WSW 2 6 1 3 - - 0.0
17/07:00am -0.3 -3.1 -0.4 99 0.0 WSW 4 7 2 4 - - 0.0
17/06:30am -0.9 -4.2 -1.0 99 0.0 WSW 6 7 3 4 - - 0.0
17/06:00am -1.5 -4.1 -1.6 99 0.0 S 2 6 1 3 - - 0.0
17/05:30am -1.5 -3.7 -1.6 99 0.0 CALM 0 2 0 1 - - 0.0
17/05:00am -2.0 -4.3 -2.3 98 0.0 CALM 0 2 0 1 - - 0.0
17/04:30am -1.8 -4.4 -1.9 99 -0.1 W 2 6 1 3 - - 0.0
17/04:00am -1.8 -5.2 -2.1 98 0.0 SW 6 7 3 4 - - 0.0
17/03:30am -1.9 -4.2 -2.5 96 0.1 CALM 0 0 0 0 - - 0.0
17/03:00am -1.5 -4.1 -1.9 97 0.1 W 2 4 1 2 - - 0.0
17/02:30am -0.9 -3.0 -1.0 99 0.0 CALM 0 2 0 1 - - 0.0
17/02:00am -1.0 -3.2 -1.4 97 0.1 CALM 0 2 0 1 - - 0.0
17/01:30am -0.1 -2.9 -0.2 99 0.0 SW 4 6 2 3 - - 0.0
17/01:00am -0.3 -3.1 -0.7 97 0.1 SW 4 7 2 4 - - 0.0
17/12:30am 0.1 -2.3 -0.6 95 0.3 WSW 2 7 1 4 - - 0.0
17/12:00am 0.2 -3.0 -0.2 97 0.2 SW 6 9 3 5 - - 0.0
 
Date/Time
EST
Temp
°C
App
Temp
°C
Dew
Point
Rel
Hum
%
Delta-T
°C
Wind Press
QNH
hPa
Press
MSL
hPa
Rain
since 9 am
mm
Dir
 
Spd
km/h
Gust
km/h
Spd
kts
Gust
kts
16/11:30pm 0.5 -2.6 0.4 99 0.0 SW 6 9 3 5 - - 0.0
16/11:00pm 0.4 -2.3 0.0 97 0.2 SW 4 6 2 3 - - 0.0
16/10:30pm 0.8 -1.8 0.7 99 0.0 SW 4 7 2 4 - - 0.0
16/10:00pm 0.4 -1.9 0.3 99 0.0 WSW 2 4 1 2 - - 0.0
16/09:30pm 0.4 -1.9 0.3 99 0.0 SW 2 4 1 2 - - 0.0
16/09:00pm 0.2 -2.2 -0.2 97 0.2 SW 2 4 1 2 - - 0.0
16/08:30pm 0.7 -1.6 0.1 96 0.2 WSW 2 4 1 2 - - 0.0
16/08:00pm 0.8 -2.0 -0.1 94 0.4 SW 4 7 2 4 - - 0.0
16/07:30pm 1.3 -1.4 0.3 93 0.4 SW 4 6 2 3 - - 0.0
16/07:00pm 2.1 -0.5 1.1 93 0.4 WSW 4 6 2 3 - - 0.0
16/06:30pm 3.2 0.3 1.6 89 0.7 WSW 6 13 3 7 - - 0.0
16/06:00pm 4.5 1.2 2.5 87 0.9 W 9 13 5 7 - - 0.0
16/05:30pm 5.7 2.9 3.0 83 1.2 W 7 13 4 7 - - 0.0
16/05:00pm 6.5 3.3 3.1 79 1.6 W 9 15 5 8 - - 0.0
16/04:30pm 6.9 3.8 3.5 79 1.6 W 9 17 5 9 - - 0.0
16/04:00pm 7.9 4.5 3.8 75 2.0 W 11 17 6 9 - - 0.0
16/03:30pm 9.2 5.6 3.0 65 3.0 W 11 19 6 10 - - 0.0
16/03:00pm 10.1 5.8 1.2 54 4.1 WNW 13 20 7 11 - - 0.0
16/02:30pm 10.7 7.0 2.3 56 4.0 W 11 19 6 10 - - 0.0
16/02:00pm 9.4 5.9 1.3 57 3.7 W 9 17 5 9 - - 0.0
16/01:30pm 10.8 8.3 4.0 63 3.3 WSW 6 15 3 8 - - 0.0
16/01:00pm 10.0 7.4 4.0 66 2.9 SW 7 17 4 9 - - 0.0
16/12:30pm 11.3 8.0 4.3 62 3.5 SW 11 20 6 11 - - 0.0
16/12:00pm 9.0 6.6 5.2 77 1.9 S 7 17 4 9 - - 0.0
16/11:30am 8.4 5.3 3.8 73 2.2 S 9 22 5 12 - - 0.0
16/11:00am 9.4 5.7 4.2 70 2.5 S 13 22 7 12 - - 0.0
16/10:30am 8.9 5.7 3.1 67 2.8 SSW 9 20 5 11 - - 0.0
16/10:00am 8.6 5.0 3.2 69 2.6 SSW 11 22 6 12 - - 0.0
16/09:30am 8.0 5.2 3.3 72 2.2 SW 7 15 4 8 - - 0.0
16/09:00am 7.3 4.6 3.9 79 1.6 WSW 7 20 4 11 - - 1.4
16/08:30am 6.3 3.2 3.5 82 1.3 SW 9 24 5 13 - - 1.4
16/08:00am 4.7 2.5 3.4 91 0.6 SW 4 15 2 8 - - 1.4
16/07:30am 3.0 0.7 2.6 97 0.2 SW 4 11 2 6 - - 1.4
16/07:00am 0.8 -1.8 0.7 99 0.0 SW 4 9 2 5 - - 1.4
16/06:30am -0.6 -3.1 -0.7 99 0.0 WSW 2 6 1 3 - - 1.4
16/06:00am -0.7 -2.8 -0.8 99 0.0 CALM 0 2 0 1 - - 1.4
16/05:30am -0.4 -3.6 -0.5 99 0.0 SW 6 7 3 4 - - 1.4
16/05:00am 0.3 -2.0 0.2 99 0.0 WSW 2 4 1 2 - - 1.4
16/04:30am 1.0 -0.8 0.9 99 0.0 CALM 0 2 0 1 - - 1.4
16/04:00am 1.6 -0.5 1.5 99 0.0 WSW 2 7 1 4 - - 1.4
16/03:30am 2.4 -0.4 2.3 99 0.0 W 6 9 3 5 - - 1.4
16/03:00am 2.8 0.9 2.7 99 0.0 W 2 6 1 3 - - 1.4
16/02:30am 2.7 0.8 2.6 99 0.0 W 2 6 1 3 - - 1.4
16/02:00am 2.9 1.0 2.8 99 0.0 SE 2 7 1 4 - - 1.4
16/01:30am 2.9 1.0 2.8 99 0.0 S 2 4 1 2 - - 1.2
16/01:00am 2.9 1.0 2.8 99 0.0 W 2 4 1 2 - - 1.2
16/12:30am 3.3 1.5 3.2 99 0.0 ESE 2 6 1 3 - - 1.2
16/12:00am 3.4 1.6 3.3 99 0.0 SE 2 4 1 2 - - 1.2
 
Date/Time
EST
Temp
°C
App
Temp
°C
Dew
Point
Rel
Hum
%
Delta-T
°C
Wind Press
QNH
hPa
Press
MSL
hPa
Rain
since 9 am
mm
Dir
 
Spd
km/h
Gust
km/h
Spd
kts
Gust
kts
15/11:30pm 3.5 2.1 3.4 99 0.0 CALM 0 4 0 2 - - 1.2
15/11:00pm 3.5 1.7 3.4 99 0.0 S 2 7 1 4 - - 1.2
15/10:30pm 3.7 1.5 3.6 99 0.0 E 4 7 2 4 - - 1.2
15/10:00pm 4.0 1.9 3.9 99 0.0 E 4 9 2 5 - - 1.2
15/09:30pm 4.4 2.8 4.3 99 0.0 S 2 7 1 4 - - 1.2
15/09:00pm 4.6 2.6 4.5 99 0.0 E 4 7 2 4 - - 0.8
15/08:30pm 4.6 3.0 4.3 98 0.1 E 2 4 1 2 - - 0.2
15/08:00pm 4.8 2.8 4.5 98 0.1 ESE 4 9 2 5 - - 0.0
15/07:30pm 4.9 3.0 4.8 99 0.0 SE 4 9 2 5 - - 0.0
15/07:00pm 5.1 2.8 5.0 99 0.0 E 6 13 3 7 - - 0.0
15/06:30pm 5.3 3.4 4.7 96 0.3 SE 4 11 2 6 - - 0.0
15/06:00pm 5.5 3.9 4.5 93 0.5 S 2 6 1 3 - - 0.0
15/05:30pm 5.8 3.5 4.6 92 0.6 S 6 13 3 7 - - 0.0
15/05:00pm 6.2 3.6 4.0 86 1.0 S 7 15 4 8 - - 0.0
15/04:30pm 7.1 5.1 4.4 83 1.3 SE 4 11 2 6 - - 0.0
15/04:00pm 6.5 4.1 4.5 87 1.0 ESE 6 11 3 6 - - 0.0
15/03:30pm 6.9 4.4 4.6 85 1.1 ESE 7 13 4 7 - - 0.0
15/03:00pm 7.9 5.3 4.3 78 1.7 SE 7 19 4 10 - - 0.0
15/02:30pm 7.7 5.1 4.1 78 1.7 SE 7 13 4 7 - - 0.0
15/02:00pm 7.5 5.0 4.5 81 1.5 SE 7 20 4 11 - - 0.0
15/01:30pm 9.1 6.2 4.7 74 2.2 SSE 9 19 5 10 - - 0.0
15/01:00pm 7.3 4.6 3.5 77 1.8 SE 7 19 4 10 - - 0.0
15/12:30pm 7.5 4.9 4.3 80 1.5 E 7 17 4 9 - - 0.0
15/12:00pm 7.4 4.9 3.8 78 1.7 ESE 6 15 3 8 - - 0.0
15/11:30am 6.9 4.0 4.6 85 1.1 ESE 9 15 5 8 - - 0.0
15/11:00am 6.6 3.9 3.9 83 1.3 SE 7 15 4 8 - - 0.0
15/10:30am 7.0 3.9 3.8 80 1.5 ESE 9 19 5 10 - - 0.0
15/10:00am 6.5 3.1 3.8 83 1.3 E 11 17 6 9 - - 0.0
15/09:30am 5.9 2.9 4.1 88 0.9 E 9 17 5 9 - - 0.0
15/09:00am 4.7 2.1 4.1 96 0.3 E 7 15 4 8 - - 0.0
15/08:30am 3.7 1.1 3.4 98 0.1 E 6 13 3 7 - - 0.0
15/08:00am 3.4 1.2 3.3 99 0.0 SE 4 9 2 5 - - 0.0
15/07:30am 2.7 0.8 2.6 99 0.0 SSW 2 7 1 4 - - 0.0
15/07:00am 1.3 -0.9 1.2 99 0.0 W 2 6 1 3 - - 0.0
15/06:30am 0.5 -1.8 0.4 99 0.0 WSW 2 6 1 3 - - 0.0
15/06:00am -0.3 -2.7 -0.4 99 0.0 WSW 2 6 1 3 - - 0.0
15/05:30am -0.6 -3.8 -0.7 99 0.0 WSW 6 9 3 5 - - 0.0
15/05:00am -0.3 -3.5 -0.4 99 0.0 WSW 6 9 3 5 - - 0.0
15/04:30am -0.2 -3.6 -0.3 99 0.0 WSW 7 15 4 8 - - 0.0
15/04:00am -0.3 -3.1 -0.4 99 0.0 WSW 4 7 2 4 - - 0.0
15/03:30am 0.1 -3.2 0.0 99 0.0 WSW 7 13 4 7 - - 0.0
15/03:00am 0.3 -2.8 0.2 99 0.0 WSW 6 9 3 5 - - 0.0
15/02:30am 0.3 -2.4 0.2 99 0.0 W 4 7 2 4 - - 0.0
15/02:00am 0.3 -2.0 0.2 99 0.0 W 2 4 1 2 - - 0.0
15/01:30am 0.4 -2.3 0.3 99 0.0 W 4 6 2 3 - - 0.0
15/01:00am 0.8 -2.2 0.7 99 0.0 W 6 9 3 5 - - 0.0
15/12:30am -0.1 -3.3 -0.2 99 0.0 WSW 6 7 3 4 - - 0.0
15/12:00am -1.7 -4.8 -2.3 96 0.1 SW 4 6 2 3 - - 0.0
 
Date/Time
EST
Temp
°C
App
Temp
°C
Dew
Point
Rel
Hum
%
Delta-T
°C
Wind Press
QNH
hPa
Press
MSL
hPa
Rain
since 9 am
mm
Dir
 
Spd
km/h
Gust
km/h
Spd
kts
Gust
kts
14/11:30pm -1.3 -4.4 -2.3 93 0.3 SW 4 6 2 3 - - 0.0
14/11:00pm 0.1 -2.4 -1.0 92 0.4 WSW 2 4 1 2 - - 0.0
14/10:30pm 1.8 -0.6 -0.1 87 0.8 SE 2 4 1 2 - - 0.0
14/10:00pm 2.6 0.3 0.3 85 1.0 NW 2 6 1 3 - - 0.0
14/09:30pm 2.9 0.6 0.6 85 1.0 N 2 6 1 3 - - 0.0
14/09:00pm 3.2 0.2 1.1 86 0.9 E 6 11 3 6 - - 0.0
14/08:30pm 3.4 1.2 1.1 85 1.0 ENE 2 7 1 4 - - 0.0
14/08:00pm 3.5 1.0 1.4 86 0.9 E 4 9 2 5 - - 0.0
14/07:30pm 3.7 1.3 1.9 88 0.8 SE 4 7 2 4 - - 0.0
14/07:00pm 3.7 0.9 1.9 88 0.8 ENE 6 11 3 6 - - 0.0
14/06:30pm 3.8 1.4 2.2 89 0.7 ESE 4 7 2 4 - - 0.0
14/06:00pm 4.2 2.6 2.2 87 0.9 CALM 0 2 0 1 - - 0.0
14/05:30pm 4.5 1.6 2.4 86 0.9 E 7 9 4 5 - - 0.0
14/05:00pm 5.2 2.3 2.7 84 1.1 E 7 13 4 7 - - 0.0
14/04:30pm 6.0 3.1 2.5 78 1.6 ESE 7 13 4 7 - - 0.0
14/04:00pm 6.3 3.4 2.6 77 1.7 SSE 7 15 4 8 - - 0.0
14/03:30pm 6.9 4.0 2.4 73 2.1 ESE 7 13 4 7 - - 0.0
14/03:00pm 6.6 2.5 2.3 74 2.0 ESE 13 20 7 11 - - 0.0
14/02:30pm 7.0 3.6 2.1 71 2.2 ESE 9 17 5 9 - - 0.0
14/02:00pm 6.7 3.6 1.6 70 2.3 SE 7 15 4 8 - - 0.0
14/01:30pm 6.9 3.5 1.8 70 2.3 ESE 9 19 5 10 - - 0.0
14/01:00pm 7.2 4.3 2.5 72 2.2 SSE 7 15 4 8 - - 0.0
14/12:30pm 8.7 5.5 3.1 68 2.7 E 9 17 5 9 - - 0.0
14/12:00pm 7.3 3.9 1.8 68 2.5 E 9 17 5 9 - - 0.0
14/11:30am 6.0 2.9 1.2 71 2.1 SE 7 15 4 8 - - 0.0
14/11:00am 6.2 2.7 1.3 71 2.2 ESE 9 17 5 9 - - 0.0
14/10:30am 4.8 1.3 1.1 77 1.6 SE 9 17 5 9 - - 0.0
14/10:00am 5.5 2.7 2.2 79 1.5 E 6 15 3 8 - - 0.0
14/09:30am 3.4 -0.2 0.8 83 1.1 ESE 9 17 5 9 - - 0.0
14/09:00am 3.4 0.4 2.1 91 0.6 ESE 7 13 4 7 - - 0.0
14/08:30am 3.3 1.0 3.0 98 0.1 SE 4 15 2 8 - - 0.0
14/08:00am 2.6 0.6 2.3 98 0.1 NW 2 6 1 3 - - 0.0

Other Formats:

Comma delimited format used in spreadsheet applications
http://www.bom.gov.au/fwo/IDN60801/IDN60801.94915.axf

JavaScript Object Notation format (JSON) in row-major order
http://www.bom.gov.au/fwo/IDN60801/IDN60801.94915.json